Time;durP1;ratioP1;P1;durP2;ratioP2;P2;SDS_P1;SDS_P2;PMS_P1;PMS_P2;Temp;Humidity;BMP_temperature;BMP_pressure;BME280_temperature;BME280_humidity;BME280_pressure;Samples;Min_cycle;Max_cycle;Signal;HPM_P1;HPM_P2
2023/06/22 00:01:49;;;;;;;;;4.50;2.75;;;;;26.31;45.43;101192.91;4957386;28;45665;-47
2023/06/22 00:04:15;;;;;;;;;4.00;4.00;;;;;26.30;45.41;101193.88;4956880;28;46394;-46
2023/06/22 00:06:40;;;;;;;;;4.00;4.00;;;;;26.30;45.62;101191.22;4956759;28;45538;-45
2023/06/22 00:09:06;;;;;;;;;6.50;4.00;;;;;26.31;45.60;101200.03;4956931;28;45188;-42
2023/06/22 00:11:33;;;;;;;;;5.50;3.75;;;;;26.29;45.87;101199.31;4957050;28;45646;-47
2023/06/22 00:13:59;;;;;;;;;4.25;4.25;;;;;26.30;45.64;101190.34;4955359;28;48442;-43
2023/06/22 00:16:24;;;;;;;;;4.00;3.75;;;;;26.32;45.73;101188.44;4956691;28;45464;-45
2023/06/22 00:18:49;;;;;;;;;4.50;4.50;;;;;26.30;45.69;101182.38;4957172;28;45765;-46
2023/06/22 00:21:15;;;;;;;;;4.00;4.00;;;;;26.30;45.79;101185.91;4956846;28;45637;-50
2023/06/22 00:23:41;;;;;;;;;5.00;3.00;;;;;26.31;45.88;101178.75;4957472;28;46323;-45
2023/06/22 00:26:06;;;;;;;;;4.00;4.00;;;;;26.32;45.71;101175.16;4959961;28;45800;-46
2023/06/22 00:28:31;;;;;;;;;4.50;4.00;;;;;26.31;45.79;101169.00;4959964;28;45767;-46
2023/06/22 00:30:57;;;;;;;;;3.25;3.25;;;;;26.29;45.42;101159.47;4959518;28;54899;-46
2023/06/22 00:33:22;;;;;;;;;3.25;3.00;;;;;26.27;45.37;101153.41;4959538;28;53892;-45
2023/06/22 00:35:47;;;;;;;;;3.75;3.75;;;;;26.27;45.40;101156.06;4959764;28;45500;-46
2023/06/22 00:38:13;;;;;;;;;5.50;4.00;;;;;26.26;45.84;101152.53;4959908;28;45551;-44
2023/06/22 00:40:38;;;;;;;;;7.00;3.50;;;;;26.26;45.44;101154.34;4960083;28;45454;-45
2023/06/22 00:43:05;;;;;;;;;5.25;3.00;;;;;26.23;45.16;101147.47;4959785;28;46199;-49
2023/06/22 00:45:31;;;;;;;;;3.75;3.00;;;;;26.24;45.71;101155.31;4959604;28;45358;-44
2023/06/22 00:47:58;;;;;;;;;4.00;4.00;;;;;26.22;45.03;101141.28;4959792;28;45286;-46
2023/06/22 00:50:26;;;;;;;;;4.00;4.00;;;;;26.22;45.56;101148.44;4959601;28;45591;-45
2023/06/22 00:52:53;;;;;;;;;3.75;3.75;;;;;26.17;45.62;101138.16;4959851;28;45534;-47
2023/06/22 00:55:22;;;;;;;;;5.50;3.50;;;;;26.19;45.63;101149.50;4959874;28;45431;-45
2023/06/22 00:57:48;;;;;;;;;5.00;5.00;;;;;26.18;45.56;101145.13;4959988;28;45777;-46
2023/06/22 01:00:19;;;;;;;;;4.00;3.00;;;;;26.19;45.47;101146.84;4959754;28;45296;-45
2023/06/22 01:02:51;;;;;;;;;4.75;3.00;;;;;26.17;45.83;101137.28;4959134;28;47169;-47
2023/06/22 01:05:21;;;;;;;;;5.75;3.50;;;;;26.19;45.36;101136.22;4958014;28;45589;-46
2023/06/22 01:08:04;;;;;;;;;5.50;4.25;;;;;26.20;45.43;101140.56;4959522;28;45202;-46
2023/06/22 01:10:41;;;;;;;;;3.00;3.00;;;;;26.20;45.25;101135.25;4959628;28;45291;-46
2023/06/22 01:13:25;;;;;;;;;4.50;4.50;;;;;26.19;45.35;101130.91;4959236;28;46723;-43
2023/06/22 01:16:00;;;;;;;;;4.50;4.00;;;;;26.16;45.30;101123.19;4959441;28;45203;-49
2023/06/22 01:18:29;;;;;;;;;4.25;4.25;;;;;26.15;45.37;101117.97;4959281;28;45289;-45
2023/06/22 01:20:57;;;;;;;;;4.75;4.00;;;;;26.14;45.15;101117.13;4959248;28;45503;-46
2023/06/22 01:23:32;;;;;;;;;3.75;2.75;;;;;26.14;45.52;101110.94;4959321;28;47614;-46
2023/06/22 01:26:06;;;;;;;;;3.75;3.50;;;;;26.13;45.14;101115.44;4958898;28;45317;-44
2023/06/22 01:28:41;;;;;;;;;3.50;3.00;;;;;26.07;45.25;101100.78;4957738;28;45435;-47
2023/06/22 01:31:08;;;;;;;;;2.75;2.75;;;;;26.08;45.09;101106.91;4959148;28;45253;-45
2023/06/22 01:33:39;;;;;;;;;5.75;5.00;;;;;26.09;45.06;101108.59;4959233;28;45308;-45
2023/06/22 01:36:05;;;;;;;;;4.00;4.00;;;;;26.08;45.34;101101.59;4958155;28;45794;-47
2023/06/22 01:38:32;;;;;;;;;4.25;3.00;;;;;26.06;45.23;101092.94;4959061;28;45333;-45
2023/06/22 01:40:58;;;;;;;;;5.75;3.50;;;;;26.03;45.20;101082.53;4959201;28;45540;-45
2023/06/22 01:43:26;;;;;;;;;5.00;4.00;;;;;26.04;45.33;101086.88;4959080;28;47130;-45
2023/06/22 01:45:52;;;;;;;;;3.25;3.25;;;;;26.04;45.26;101089.53;4959127;28;45698;-46
2023/06/22 01:48:19;;;;;;;;;3.50;3.50;;;;;26.04;45.38;101089.53;4958818;28;45266;-45
2023/06/22 01:50:45;;;;;;;;;3.25;3.00;;;;;26.04;45.13;101089.53;4958917;28;45539;-46
2023/06/22 01:53:10;;;;;;;;;5.00;5.00;;;;;26.04;45.28;101086.88;4957351;28;45356;-46
2023/06/22 01:55:35;;;;;;;;;4.25;3.75;;;;;26.04;45.25;101084.22;4958528;28;45396;-44
2023/06/22 01:58:01;;;;;;;;;5.00;3.25;;;;;26.01;45.04;101076.47;4957094;28;50333;-44
2023/06/22 02:00:31;;;;;;;;;5.00;4.00;;;;;26.02;45.34;101080.81;4959265;28;45490;-44
2023/06/22 02:03:02;;;;;;;;;4.00;4.00;;;;;26.02;45.21;101086.13;4958652;28;45429;-45
2023/06/22 02:05:35;;;;;;;;;4.00;3.25;;;;;26.02;45.14;101080.81;4958523;28;45909;-45
2023/06/22 02:08:08;;;;;;;;;1.00;1.00;;;;;26.02;45.42;101075.50;4958669;28;45411;-44
2023/06/22 02:10:36;;;;;;;;;5.25;3.00;;;;;26.02;45.16;101075.50;4958937;28;45358;-50
2023/06/22 02:13:04;;;;;;;;;6.25;4.25;;;;;25.99;44.86;101081.06;4958321;28;45459;-45
2023/06/22 02:15:30;;;;;;;;;4.75;3.75;;;;;26.00;44.97;101078.28;4958369;28;45271;-46
2023/06/22 02:17:56;;;;;;;;;3.25;3.25;;;;;26.00;44.94;101078.28;4958715;28;45298;-46
2023/06/22 02:20:21;;;;;;;;;3.50;3.50;;;;;26.01;44.82;101085.31;4958594;28;45584;-47
2023/06/22 02:22:46;;;;;;;;;3.00;3.00;;;;;26.00;45.16;101074.78;4958000;28;45492;-44
2023/06/22 02:25:12;;;;;;;;;6.25;3.75;;;;;26.01;45.30;101089.75;4958061;28;48166;-45
2023/06/22 02:27:40;;;;;;;;;3.50;3.00;;;;;25.97;45.10;101075.88;4958311;28;45221;-46
2023/06/22 02:30:08;;;;;;;;;5.50;4.50;;;;;26.00;45.34;101075.66;4958275;28;45549;-45
2023/06/22 02:32:34;;;;;;;;;4.50;3.00;;;;;25.98;44.92;101069.59;4957864;28;46590;-46
2023/06/22 02:34:59;;;;;;;;;3.25;3.00;;;;;25.97;45.17;101067.03;4956733;28;45896;-47
2023/06/22 02:37:29;;;;;;;;;6.75;5.00;;;;;25.94;44.87;101065.47;4958433;28;45173;-42
2023/06/22 02:39:54;;;;;;;;;5.00;3.25;;;;;25.93;45.26;101056.66;4958595;28;45546;-46
2023/06/22 02:42:21;;;;;;;;;4.50;2.75;;;;;25.93;45.06;101061.97;4957611;28;55031;-43
2023/06/22 02:44:46;;;;;;;;;4.00;4.00;;;;;25.93;44.79;101056.66;4957859;28;45285;-44
2023/06/22 02:47:12;;;;;;;;;5.00;3.25;;;;;25.93;44.86;101061.97;4955655;28;45324;-46
2023/06/22 02:49:37;;;;;;;;;3.50;3.50;;;;;25.92;44.92;101062.94;4957980;28;45285;-46
2023/06/22 02:52:03;;;;;;;;;4.50;4.00;;;;;25.89;45.03;101065.81;4957704;28;46421;-44
2023/06/22 02:54:28;;;;;;;;;4.00;4.00;;;;;25.91;44.99;101068.34;4958001;28;45355;-43
2023/06/22 02:56:54;;;;;;;;;4.75;4.75;;;;;25.88;44.78;101074.75;4957849;28;45402;-46
2023/06/22 02:59:23;;;;;;;;;3.00;3.00;;;;;25.87;44.96;101066.91;4957960;28;45238;-45
2023/06/22 03:01:49;;;;;;;;;6.25;4.00;;;;;25.84;44.66;101070.63;4957518;28;46590;-47
2023/06/22 03:04:15;;;;;;;;;5.50;3.75;;;;;25.82;44.67;101061.94;4957415;28;45436;-45
2023/06/22 03:06:41;;;;;;;;;3.00;3.00;;;;;25.82;44.54;101061.94;4957635;28;45370;-48
2023/06/22 03:09:06;;;;;;;;;3.25;3.25;;;;;25.82;44.92;101059.28;4957948;28;45292;-45
2023/06/22 03:11:33;;;;;;;;;3.00;3.00;;;;;25.82;44.67;101053.97;4957489;28;46883;-44
2023/06/22 03:13:59;;;;;;;;;4.00;3.00;;;;;25.81;45.13;101036.34;4956332;28;45351;-46
2023/06/22 03:16:25;;;;;;;;;3.50;3.50;;;;;25.83;44.71;101039.72;4957561;28;45229;-47
2023/06/22 03:18:51;;;;;;;;;5.25;3.75;;;;;25.83;44.89;101023.81;4956554;28;46053;-48
2023/06/22 03:21:16;;;;;;;;;5.00;5.00;;;;;25.81;44.85;101017.75;4956105;28;48411;-46
2023/06/22 03:23:42;;;;;;;;;3.00;3.00;;;;;25.79;44.78;101017.03;4957281;28;45226;-48
2023/06/22 03:26:11;;;;;;;;;2.00;2.00;;;;;25.78;44.49;101024.16;4957473;28;45356;-45
2023/06/22 03:28:37;;;;;;;;;5.00;3.75;;;;;25.80;44.84;101028.50;4957570;28;45463;-46
2023/06/22 03:31:04;;;;;;;;;4.25;4.00;;;;;25.79;44.71;101030.28;4957226;28;45337;-43
2023/06/22 03:33:29;;;;;;;;;4.50;4.25;;;;;25.79;44.88;101024.97;4957508;28;45376;-45
2023/06/22 03:35:55;;;;;;;;;4.50;4.00;;;;;25.80;44.80;101034.66;4957310;28;45243;-45
2023/06/22 03:38:20;;;;;;;;;3.00;3.00;;;;;25.80;44.89;101024.03;4957411;28;45456;-45
2023/06/22 03:40:45;;;;;;;;;3.00;3.00;;;;;25.78;44.76;101026.81;4957059;28;47343;-45
2023/06/22 03:43:11;;;;;;;;;4.50;4.50;;;;;25.79;45.08;101022.31;4957179;28;45230;-45
2023/06/22 03:45:37;;;;;;;;;4.00;3.25;;;;;25.78;44.58;101020.63;4957103;28;45372;-46
2023/06/22 03:48:03;;;;;;;;;4.25;4.25;;;;;25.77;44.88;101018.94;4957721;28;45516;-45
2023/06/22 03:50:29;;;;;;;;;3.00;3.00;;;;;25.78;44.58;101015.31;4957414;28;46671;-45
2023/06/22 03:52:55;;;;;;;;;4.00;4.00;;;;;25.78;44.37;101016.19;4956980;28;45364;-45
2023/06/22 03:55:20;;;;;;;;;3.50;3.50;;;;;25.80;44.67;101020.53;4957105;28;45452;-47
2023/06/22 03:57:46;;;;;;;;;4.25;3.25;;;;;25.79;44.56;101022.31;4957256;28;45356;-47
2023/06/22 04:00:12;;;;;;;;;5.00;5.00;;;;;25.79;44.59;101017.03;4959957;28;45380;-45
2023/06/22 04:02:38;;;;;;;;;4.00;4.00;;;;;25.76;44.78;101015.44;4958889;28;45743;-45
2023/06/22 04:05:03;;;;;;;;;4.00;4.00;;;;;25.77;44.62;101021.59;4960409;28;46038;-48
2023/06/22 04:07:29;;;;;;;;;4.25;4.00;;;;;25.79;44.99;101022.31;4959428;28;45318;-46
2023/06/22 04:09:54;;;;;;;;;4.00;3.25;;;;;25.80;45.05;101029.34;4960355;28;45404;-45
2023/06/22 04:12:19;;;;;;;;;5.00;3.00;;;;;25.80;44.48;101029.34;4960154;28;45334;-45
2023/06/22 04:14:45;;;;;;;;;4.00;4.00;;;;;25.75;44.33;101026.16;4959048;28;45256;-47
2023/06/22 04:17:13;;;;;;;;;4.75;3.75;;;;;25.76;44.50;101034.03;4960375;28;45507;-47
2023/06/22 04:19:39;;;;;;;;;4.75;4.00;;;;;25.72;44.90;101026.41;4960060;28;45284;-48
2023/06/22 04:22:06;;;;;;;;;4.00;4.00;;;;;25.72;44.66;101031.72;4960466;28;45387;-47
2023/06/22 04:24:32;;;;;;;;;4.00;4.00;;;;;25.72;44.71;101031.72;4960483;28;45398;-46
2023/06/22 04:27:02;;;;;;;;;4.25;4.25;;;;;25.71;44.85;101030.84;4960420;28;45273;-44
2023/06/22 04:29:30;;;;;;;;;4.25;4.25;;;;;25.70;44.74;101028.34;4960002;28;47146;-46
2023/06/22 04:31:58;;;;;;;;;4.50;3.00;;;;;25.71;44.54;101035.34;4959940;28;45648;-45
2023/06/22 04:34:26;;;;;;;;;4.00;4.00;;;;;25.71;44.82;101032.69;4960166;28;45403;-47
2023/06/22 04:36:51;;;;;;;;;4.75;4.75;;;;;25.72;44.63;101031.72;4960225;28;45250;-44
2023/06/22 04:39:17;;;;;;;;;6.00;5.00;;;;;25.70;45.19;101029.16;4959865;28;45578;-43
2023/06/22 04:41:42;;;;;;;;;5.00;4.50;;;;;25.72;45.60;101031.72;4959769;28;45311;-45
2023/06/22 04:44:11;;;;;;;;;4.75;4.75;;;;;25.70;45.63;101028.34;4959994;28;45276;-44
2023/06/22 04:46:38;;;;;;;;;4.00;4.00;;;;;25.72;45.73;101029.06;4960292;28;45504;-46
2023/06/22 04:49:09;;;;;;;;;5.00;4.50;;;;;25.71;45.87;101030.03;4960020;28;46075;-44
2023/06/22 04:51:41;;;;;;;;;3.00;3.00;;;;;25.72;45.92;101031.72;4960035;28;45885;-44
2023/06/22 04:54:06;;;;;;;;;4.00;4.00;;;;;25.72;45.93;101037.88;4960004;28;45255;-44
2023/06/22 04:56:33;;;;;;;;;4.25;4.25;;;;;25.73;45.98;101038.72;4958582;28;45364;-43
2023/06/22 04:58:58;;;;;;;;;6.00;4.50;;;;;25.73;46.44;101033.41;4959398;28;46475;-43
2023/06/22 05:01:25;;;;;;;;;3.75;3.75;;;;;25.72;46.12;101031.72;4958240;28;45280;-43
2023/06/22 05:03:51;;;;;;;;;5.00;5.00;;;;;25.69;46.34;101022.16;4959310;28;45494;-44
2023/06/22 05:06:17;;;;;;;;;0.00;0.00;;;;;25.71;46.39;101030.84;4959643;28;45396;-43
2023/06/22 05:08:43;;;;;;;;;6.00;5.25;;;;;25.70;46.81;101028.34;4959238;28;46734;-45
2023/06/22 05:11:09;;;;;;;;;6.00;4.50;;;;;25.72;46.68;101039.69;4958153;28;45881;-45
2023/06/22 05:13:34;;;;;;;;;5.50;5.50;;;;;25.70;46.58;101036.28;4959718;28;45310;-43
2023/06/22 05:16:02;;;;;;;;;5.00;4.50;;;;;25.71;46.97;101035.34;4959452;28;45608;-45
2023/06/22 05:18:29;;;;;;;;;6.50;4.00;;;;;25.68;46.76;101039.06;4957702;28;46730;-45
2023/06/22 05:20:55;;;;;;;;;6.00;5.25;;;;;25.65;46.68;101038.44;4959207;28;45423;-46
2023/06/22 05:23:20;;;;;;;;;10.25;6.00;;;;;25.67;47.10;101033.88;4959165;28;45431;-45
2023/06/22 05:25:45;;;;;;;;;6.25;6.25;;;;;25.63;47.16;101026.13;4958091;28;45533;-45
2023/06/22 05:28:11;;;;;;;;;7.00;5.25;;;;;25.64;47.62;101034.94;4959077;28;45438;-48
2023/06/22 05:30:39;;;;;;;;;7.75;6.00;;;;;25.62;47.30;101027.09;4959352;28;45481;-49
2023/06/22 05:33:05;;;;;;;;;7.00;6.00;;;;;25.62;47.65;101019.16;4959500;28;45302;-44
2023/06/22 05:35:30;;;;;;;;;6.50;5.75;;;;;25.61;47.21;101009.47;4957949;28;45347;-48
2023/06/22 05:37:56;;;;;;;;;7.00;5.50;;;;;25.59;47.52;101006.09;4958745;28;45710;-46
2023/06/22 05:40:21;;;;;;;;;9.25;6.25;;;;;25.58;48.02;101007.06;4958509;28;57600;-48
2023/06/22 05:42:47;;;;;;;;;9.75;6.50;;;;;25.58;47.70;101007.06;4958968;28;45344;-50
2023/06/22 05:45:12;;;;;;;;;7.50;6.00;;;;;25.59;48.24;101016.72;4959084;28;45688;-50
2023/06/22 05:47:38;;;;;;;;;5.25;4.75;;;;;25.58;47.90;101009.72;4959132;28;45337;-48
2023/06/22 05:50:06;;;;;;;;;5.75;5.50;;;;;25.58;48.27;101014.16;4958757;28;45342;-44
2023/06/22 05:52:32;;;;;;;;;7.75;6.75;;;;;25.56;48.35;101011.63;4958794;28;45404;-47
2023/06/22 05:54:57;;;;;;;;;7.25;7.25;;;;;25.58;48.35;101012.34;4968955;28;45269;-43
2023/06/22 05:57:23;;;;;;;;;8.50;5.75;;;;;25.56;48.70;101008.97;4976702;28;48302;-45
2023/06/22 05:59:48;;;;;;;;;7.00;7.00;;;;;25.56;48.63;101011.63;4978045;28;45348;-47
2023/06/22 06:02:14;;;;;;;;;12.00;6.75;;;;;25.57;48.60;101015.97;4978140;28;45780;-46
2023/06/22 06:04:39;;;;;;;;;9.25;7.75;;;;;25.56;48.57;101008.97;4978358;28;45582;-47
2023/06/22 06:07:04;;;;;;;;;9.75;6.75;;;;;25.57;49.23;101015.97;4977820;28;45438;-45
2023/06/22 06:09:30;;;;;;;;;8.50;6.00;;;;;25.56;49.28;101010.78;4977969;28;45173;-45
2023/06/22 06:11:55;;;;;;;;;9.25;8.50;;;;;25.53;49.00;101009.19;4978005;28;45162;-47
2023/06/22 06:14:20;;;;;;;;;12.00;8.00;;;;;25.51;49.09;101008.47;4978124;28;45277;-45
2023/06/22 06:16:46;;;;;;;;;8.75;7.50;;;;;25.50;49.56;101009.44;4977528;28;46241;-46
2023/06/22 06:19:11;;;;;;;;;8.75;7.25;;;;;25.49;49.19;101010.41;4977998;28;45601;-44
2023/06/22 06:21:37;;;;;;;;;8.00;7.25;;;;;25.50;49.33;101011.22;4977712;28;45838;-44
2023/06/22 06:24:02;;;;;;;;;9.25;5.75;;;;;25.47;49.31;101012.31;4977852;28;45343;-46
2023/06/22 06:26:29;;;;;;;;;7.50;6.00;;;;;25.47;49.54;100999.03;4976305;28;47325;-44
2023/06/22 06:28:55;;;;;;;;;10.50;8.25;;;;;25.48;49.60;101008.69;4977618;28;46169;-44
2023/06/22 06:31:21;;;;;;;;;9.75;9.25;;;;;25.49;49.79;101018.34;4977725;28;45342;-45
2023/06/22 06:33:46;;;;;;;;;11.25;8.50;;;;;25.45;49.95;101019.53;4977866;28;45582;-45
2023/06/22 06:36:11;;;;;;;;;8.75;7.50;;;;;25.47;49.90;101022.91;4966598;28;45475;-45
2023/06/22 06:38:37;;;;;;;;;11.75;8.75;;;;;25.46;50.12;101032.72;4957060;28;49698;-42
2023/06/22 06:41:02;;;;;;;;;8.00;8.00;;;;;25.44;50.30;101028.44;4957612;28;45404;-43
2023/06/22 06:43:27;;;;;;;;;12.75;10.00;;;;;25.44;50.14;101031.09;4958095;28;45332;-45
2023/06/22 06:45:53;;;;;;;;;9.00;8.00;;;;;25.42;50.34;101027.72;4956614;28;46234;-45
2023/06/22 06:48:18;;;;;;;;;10.25;8.25;;;;;25.41;50.10;101018.91;4957577;28;48471;-45
2023/06/22 06:50:43;;;;;;;;;11.50;8.25;;;;;25.40;50.31;101003.94;4958074;28;45333;-45
2023/06/22 06:53:09;;;;;;;;;9.25;7.25;;;;;25.39;50.51;101004.03;4958338;28;45412;-47
2023/06/22 06:55:35;;;;;;;;;11.75;8.25;;;;;25.37;50.89;101000.66;4957534;28;45301;-42
2023/06/22 06:58:02;;;;;;;;;13.75;9.50;;;;;25.38;50.96;100997.88;4957642;28;45368;-46
2023/06/22 07:00:27;;;;;;;;;13.50;11.50;;;;;25.37;50.40;101000.66;4957707;28;45169;-42
2023/06/22 07:02:53;;;;;;;;;9.00;9.00;;;;;25.35;51.00;101002.56;4957836;28;45294;-45
2023/06/22 07:05:19;;;;;;;;;10.00;9.00;;;;;25.32;50.95;100999.16;4957534;28;45683;-44
2023/06/22 07:07:44;;;;;;;;;9.00;9.00;;;;;25.31;51.12;100992.16;4957777;28;45845;-46
2023/06/22 07:10:10;;;;;;;;;14.25;10.50;;;;;25.31;51.31;100981.56;4957850;28;45553;-44
2023/06/22 07:12:36;;;;;;;;;10.25;10.00;;;;;25.32;50.98;100996.53;4957799;28;45363;-44
2023/06/22 07:15:09;;;;;;;;;13.25;11.00;;;;;25.28;51.28;100997.72;4957259;28;45422;-45
2023/06/22 07:17:44;;;;;;;;;11.75;10.25;;;;;25.27;51.23;100992.50;4957602;28;45411;-45
2023/06/22 07:20:11;;;;;;;;;16.25;13.75;;;;;25.27;51.37;100996.03;4957557;28;45410;-44
2023/06/22 07:22:41;;;;;;;;;10.50;8.75;;;;;25.28;51.30;100996.84;4957484;28;45509;-46
2023/06/22 07:25:13;;;;;;;;;12.50;9.75;;;;;25.31;50.83;100986.88;4956938;28;46263;-42
2023/06/22 07:27:42;;;;;;;;;11.50;9.75;;;;;25.36;51.47;100989.16;4955774;28;45786;-45
2023/06/22 07:30:09;;;;;;;;;8.50;7.75;;;;;25.40;51.21;100985.38;4957445;28;45480;-45
2023/06/22 07:32:34;;;;;;;;;8.50;8.50;;;;;25.44;50.72;100986.84;4957446;28;45442;-45
2023/06/22 07:35:01;;;;;;;;;7.75;7.00;;;;;25.48;50.79;100976.84;4960131;28;45371;-45
2023/06/22 07:37:27;;;;;;;;;9.75;7.75;;;;;25.52;50.79;100983.59;4960529;28;45371;-44
2023/06/22 07:39:57;;;;;;;;;8.25;8.00;;;;;25.55;50.83;100975.44;4960798;28;45395;-42
2023/06/22 07:42:23;;;;;;;;;10.00;7.00;;;;;25.58;50.35;100979.66;4961065;28;45392;-46
2023/06/22 07:44:50;;;;;;;;;8.25;7.75;;;;;25.57;50.48;100968.19;4959358;28;46369;-43
2023/06/22 07:47:17;;;;;;;;;9.25;8.00;;;;;25.62;50.18;100978.47;4960839;28;45612;-45
2023/06/22 07:49:43;;;;;;;;;8.00;8.00;;;;;25.65;50.10;100980.03;4960991;28;45357;-45
2023/06/22 07:52:08;;;;;;;;;11.75;7.75;;;;;25.67;50.18;100988.75;4960959;28;45376;-44
2023/06/22 07:54:34;;;;;;;;;9.00;9.00;;;;;25.69;49.97;100981.50;4960250;28;47151;-43
2023/06/22 07:56:59;;;;;;;;;9.00;8.25;;;;;25.68;50.61;100985.13;4959092;28;45492;-43
2023/06/22 07:59:24;;;;;;;;;10.00;7.75;;;;;25.71;50.38;100983.06;4960524;28;45316;-44
2023/06/22 08:01:50;;;;;;;;;10.00;8.50;;;;;25.70;50.44;100991.16;4960223;28;46969;-44
2023/06/22 08:04:15;;;;;;;;;14.00;8.75;;;;;25.71;50.17;100980.44;4960412;28;46208;-44
2023/06/22 08:06:41;;;;;;;;;7.50;7.50;;;;;25.73;50.44;100993.59;4960456;28;45451;-44
2023/06/22 08:09:06;;;;;;;;;9.75;7.75;;;;;25.76;50.61;100994.22;4960423;28;45444;-45
2023/06/22 08:11:32;;;;;;;;;11.75;9.75;;;;;25.78;50.42;100996.75;4960676;28;45550;-50
2023/06/22 08:13:58;;;;;;;;;9.25;8.25;;;;;25.80;50.13;101004.59;4960100;28;45588;-47
2023/06/22 08:16:23;;;;;;;;;11.75;8.75;;;;;25.80;49.95;100997.47;4960060;28;45802;-47
2023/06/22 08:18:49;;;;;;;;;10.00;8.25;;;;;25.81;50.15;100996.50;4960338;28;45324;-46
2023/06/22 08:21:14;;;;;;;;;8.75;8.00;;;;;25.78;50.28;100994.94;4960205;28;45218;-45
2023/06/22 08:23:39;;;;;;;;;10.25;9.50;;;;;25.81;50.57;100999.16;4959728;28;46591;-46
2023/06/22 08:26:05;;;;;;;;;9.00;7.75;;;;;25.82;49.98;101002.66;4959093;28;47467;-46
2023/06/22 08:28:31;;;;;;;;;10.00;7.75;;;;;25.80;50.35;101002.78;4958731;28;45338;-46
2023/06/22 08:30:56;;;;;;;;;9.75;9.25;;;;;25.81;50.21;101001.81;4960067;28;45395;-46
2023/06/22 08:33:28;;;;;;;;;11.50;10.00;;;;;25.80;49.94;101000.13;4974741;28;46512;-45
2023/06/22 08:35:55;;;;;;;;;7.50;7.25;;;;;25.83;49.92;101002.56;4959838;28;45744;-45
2023/06/22 08:38:20;;;;;;;;;12.75;11.25;;;;;25.70;50.01;100984.03;4958746;28;45388;-47
2023/06/22 08:40:46;;;;;;;;;9.00;8.00;;;;;25.84;50.25;101006.06;4960644;28;45503;-46
2023/06/22 08:43:12;;;;;;;;;9.25;9.25;;;;;25.82;50.18;101003.53;4959655;28;45442;-47
2023/06/22 08:45:37;;;;;;;;;11.50;10.00;;;;;25.84;50.35;101004.25;4959474;28;45405;-46
2023/06/22 08:48:03;;;;;;;;;12.25;8.50;;;;;25.86;50.20;101007.63;4959889;28;45318;-49
2023/06/22 08:50:28;;;;;;;;;12.00;10.50;;;;;25.84;50.36;101004.25;4959953;28;45384;-47
2023/06/22 08:52:54;;;;;;;;;12.75;12.50;;;;;25.83;50.35;101010.53;4959506;28;45726;-45
2023/06/22 08:55:19;;;;;;;;;12.25;9.25;;;;;25.85;50.58;101010.41;4959833;28;45369;-47
2023/06/22 08:57:44;;;;;;;;;10.75;10.50;;;;;25.84;50.42;101004.25;4959784;28;45274;-45
2023/06/22 09:00:17;;;;;;;;;9.50;9.25;;;;;25.84;50.40;101009.56;4959632;28;45263;-46
2023/06/22 09:02:46;;;;;;;;;9.00;9.00;;;;;25.80;50.56;100997.47;4959362;28;46344;-45
2023/06/22 09:05:12;;;;;;;;;11.00;9.75;;;;;25.83;50.38;101009.66;4959304;28;45227;-45
2023/06/22 09:07:37;;;;;;;;;9.75;9.75;;;;;25.82;50.31;101003.53;4959551;28;45325;-45
2023/06/22 09:10:04;;;;;;;;;13.50;10.50;;;;;25.82;50.65;101002.66;4959462;28;45439;-44
2023/06/22 09:12:30;;;;;;;;;10.00;10.00;;;;;25.78;50.78;101002.91;4959073;28;47274;-45
2023/06/22 09:14:56;;;;;;;;;9.50;9.00;;;;;25.82;50.48;101008.84;4959341;28;45372;-46
2023/06/22 09:17:22;;;;;;;;;12.00;9.00;;;;;25.81;50.56;101015.09;4959228;28;45404;-47
2023/06/22 09:19:48;;;;;;;;;9.00;8.00;;;;;25.78;50.51;101010.88;4959817;28;45313;-44
2023/06/22 09:22:14;;;;;;;;;11.75;10.00;;;;;25.82;50.37;101013.28;4958961;28;46504;-45
2023/06/22 09:24:39;;;;;;;;;9.25;8.75;;;;;25.83;50.70;101013.19;4958952;28;45336;-46
2023/06/22 09:27:05;;;;;;;;;11.75;11.00;;;;;25.80;50.83;101013.41;4959209;28;45322;-46
2023/06/22 09:29:33;;;;;;;;;13.75;13.00;;;;;25.81;50.46;101012.44;4957863;28;45244;-45
2023/06/22 09:31:58;;;;;;;;;10.25;10.25;;;;;25.84;50.48;101025.50;4958892;28;47175;-45
2023/06/22 09:34:23;;;;;;;;;11.75;9.00;;;;;25.84;51.12;101016.66;4959032;28;45398;-43
2023/06/22 09:36:49;;;;;;;;;12.00;9.75;;;;;25.85;50.87;101019.19;4959388;28;45317;-47
2023/06/22 09:39:14;;;;;;;;;11.50;9.25;;;;;25.85;50.80;101024.50;4959070;28;45574;-42
2023/06/22 09:41:39;;;;;;;;;11.00;10.00;;;;;25.85;50.57;101021.03;4958723;28;46662;-45
2023/06/22 09:44:05;;;;;;;;;11.75;10.25;;;;;25.84;50.09;101033.47;4958717;28;45474;-46
2023/06/22 09:46:30;;;;;;;;;10.25;9.00;;;;;25.85;50.66;101042.25;4958667;28;45361;-45
2023/06/22 09:48:55;;;;;;;;;10.50;9.00;;;;;25.83;50.76;101045.03;4958878;28;45423;-45
2023/06/22 09:51:21;;;;;;;;;8.00;6.25;;;;;25.82;50.46;101043.34;4958927;28;45324;-46
2023/06/22 09:53:50;;;;;;;;;11.00;8.00;;;;;25.81;50.52;101046.97;4958476;28;45414;-44
2023/06/22 09:56:16;;;;;;;;;7.75;7.75;;;;;25.81;50.90;101033.69;4956581;28;45199;-46
2023/06/22 09:58:46;;;;;;;;;9.50;8.50;;;;;25.82;50.69;101037.16;4958837;28;45218;-47
2023/06/22 10:01:11;;;;;;;;;9.00;9.00;;;;;25.80;50.32;101045.25;4958418;28;46158;-46
2023/06/22 10:03:37;;;;;;;;;7.25;7.00;;;;;25.80;50.32;101045.25;4958229;28;45375;-43
2023/06/22 10:06:03;;;;;;;;;9.50;7.50;;;;;25.81;50.21;101046.09;4958421;28;45451;-45
2023/06/22 10:08:28;;;;;;;;;8.50;8.50;;;;;25.78;50.39;101048.03;4958640;28;45495;-45
2023/06/22 10:10:54;;;;;;;;;11.25;9.00;;;;;25.79;50.21;101051.53;4958372;28;46543;-47
2023/06/22 10:13:20;;;;;;;;;8.25;8.25;;;;;25.82;50.68;101051.31;4958638;28;45269;-46
2023/06/22 10:15:49;;;;;;;;;7.50;7.00;;;;;25.81;50.46;101057.59;4958322;28;45242;-43
2023/06/22 10:18:16;;;;;;;;;8.00;8.00;;;;;25.80;50.47;101050.56;4957314;28;45660;-46
2023/06/22 10:20:41;;;;;;;;;8.25;8.25;;;;;25.79;50.59;101048.88;4958056;28;45423;-45
2023/06/22 10:23:06;;;;;;;;;8.75;8.00;;;;;25.80;50.60;101047.09;4958076;28;45332;-45
2023/06/22 10:25:32;;;;;;;;;7.75;7.75;;;;;25.81;50.51;101046.97;4958266;28;45383;-45
2023/06/22 10:27:57;;;;;;;;;8.50;8.50;;;;;25.83;50.50;101055.66;4958418;28;45538;-44
2023/06/22 10:30:23;;;;;;;;;5.25;5.25;;;;;25.83;50.58;101060.09;4958318;28;45452;-45
2023/06/22 10:32:48;;;;;;;;;10.00;8.00;;;;;25.84;50.62;101062.66;4958018;28;45411;-44
2023/06/22 10:35:15;;;;;;;;;6.25;6.25;;;;;25.84;50.55;101065.31;4958119;28;45546;-44
2023/06/22 10:37:43;;;;;;;;;8.00;7.00;;;;;25.83;50.55;101065.41;4958288;28;45605;-44
2023/06/22 10:40:08;;;;;;;;;11.25;8.50;;;;;25.85;50.77;101072.31;4957691;28;47389;-45
2023/06/22 10:42:34;;;;;;;;;10.00;4.75;;;;;25.84;50.69;101072.44;4957816;28;45176;-45
2023/06/22 10:44:59;;;;;;;;;8.75;7.50;;;;;25.87;50.61;101074.88;4956665;28;45295;-46
2023/06/22 10:47:24;;;;;;;;;7.00;6.00;;;;;25.84;50.61;101069.78;4958540;28;45504;-44
2023/06/22 10:49:50;;;;;;;;;11.00;7.00;;;;;25.88;50.53;101076.56;4957840;28;46328;-44
2023/06/22 10:52:15;;;;;;;;;8.75;8.25;;;;;25.89;50.27;101080.91;4957515;28;45417;-45
2023/06/22 10:54:41;;;;;;;;;8.25;7.50;;;;;25.89;50.15;101087.06;4957877;28;45827;-44
2023/06/22 10:57:06;;;;;;;;;9.00;7.50;;;;;25.87;50.43;101094.28;4957867;28;45634;-45
2023/06/22 10:59:32;;;;;;;;;6.25;5.00;;;;;25.90;50.09;101106.50;4957463;28;46318;-45
2023/06/22 11:01:58;;;;;;;;;7.00;6.50;;;;;25.90;50.01;101112.66;4956149;28;45421;-46
2023/06/22 11:04:24;;;;;;;;;7.50;6.25;;;;;25.87;50.42;101115.53;4957982;28;45446;-46
2023/06/22 11:06:50;;;;;;;;;7.25;6.25;;;;;25.92;50.20;101117.84;4957938;28;45380;-44
2023/06/22 11:09:21;;;;;;;;;5.75;5.75;;;;;25.92;49.77;101112.53;4956341;28;45392;-46
2023/06/22 11:11:50;;;;;;;;;4.75;4.25;;;;;25.90;50.02;101115.31;4957612;28;45781;-43
2023/06/22 11:14:16;;;;;;;;;10.00;7.00;;;;;25.91;49.83;101110.81;4956408;28;45382;-47
2023/06/22 11:16:42;;;;;;;;;6.75;6.25;;;;;25.93;49.61;101116.88;4957633;28;45570;-46
2023/06/22 11:19:07;;;;;;;;;7.75;6.25;;;;;25.93;49.85;101115.09;4957372;28;46537;-45